Time;durP1;ratioP1;P1;durP2;ratioP2;P2;SDS_P1;SDS_P2;PMS_P1;PMS_P2;Temp;Humidity;BMP_temperature;BMP_pressure;BME280_temperature;BME280_humidity;BME280_pressure;Samples;Min_cycle;Max_cycle;Signal;HPM_P1;HPM_P2
2022/04/03 00:00:32;;;;;;;8.80;5.45;;;;;;;-2.37;93.78;101919.47;4963013;28;20381;-77
2022/04/03 00:03:04;;;;;;;10.18;6.00;;;;;;;-2.40;93.56;101921.28;4951277;28;20058;-77
2022/04/03 00:05:30;;;;;;;12.60;5.93;;;;;;;-2.28;93.24;101921.00;4950548;28;20038;-75
2022/04/03 00:07:56;;;;;;;10.32;5.47;;;;;;;-2.38;94.20;101917.78;4937120;28;20039;-76
2022/04/03 00:10:22;;;;;;;9.65;6.10;;;;;;;-2.42;94.50;101913.59;4962072;28;20038;-75
2022/04/03 00:12:49;;;;;;;9.80;5.97;;;;;;;-2.52;94.95;101895.84;4965117;28;20071;-75
2022/04/03 00:15:14;;;;;;;9.15;5.65;;;;;;;-2.54;94.80;101898.47;4959176;28;20034;-76
2022/04/03 00:17:41;;;;;;;11.13;6.10;;;;;;;-2.52;95.15;101899.28;4971059;28;20045;-76
2022/04/03 00:20:08;;;;;;;8.27;5.57;;;;;;;-2.51;95.22;101902.69;4972632;28;20127;-77
2022/04/03 00:22:34;;;;;;;13.38;5.88;;;;;;;-2.50;95.05;101905.22;4974223;28;20054;-76
2022/04/03 00:25:00;;;;;;;10.98;5.88;;;;;;;-2.48;94.75;101905.19;4966449;28;20038;-76
2022/04/03 00:27:25;;;;;;;11.48;6.28;;;;;;;-2.55;94.75;101895.03;4963234;28;20050;-76
2022/04/03 00:29:51;;;;;;;11.70;6.15;;;;;;;-2.47;94.91;101905.13;4967086;28;20042;-77
2022/04/03 00:32:19;;;;;;;9.75;5.72;;;;;;;-2.45;95.31;101910.25;4934728;28;20039;-77
2022/04/03 00:34:45;;;;;;;10.93;6.00;;;;;;;-2.48;95.31;101898.31;4939851;28;20067;-76
2022/04/03 00:37:11;;;;;;;11.30;6.55;;;;;;;-2.41;95.00;101896.44;4955043;28;20106;-77
2022/04/03 00:39:37;;;;;;;14.68;7.18;;;;;;;-2.36;96.40;101887.75;4955692;28;20749;-76
2022/04/03 00:42:06;;;;;;;14.40;6.40;;;;;;;-2.35;95.89;101886.88;4960132;28;20030;-76
2022/04/03 00:44:35;;;;;;;11.63;6.75;;;;;;;-2.34;96.21;101885.16;4977406;28;20162;-77
2022/04/03 00:47:01;;;;;;;12.70;5.90;;;;;;;-2.35;96.77;101894.59;4961211;28;20035;-76
2022/04/03 00:49:27;;;;;;;14.07;7.00;;;;;;;-2.45;96.72;101894.81;4940577;28;20069;-77
2022/04/03 00:51:53;;;;;;;11.40;6.35;;;;;;;-2.37;96.65;101891.22;4947005;28;20042;-76
2022/04/03 00:54:18;;;;;;;11.68;6.43;;;;;;;-2.37;96.33;101890.38;4956181;28;20039;-76
2022/04/03 00:56:45;;;;;;;12.90;6.50;;;;;;;-2.31;96.32;101897.09;4958953;28;20389;-76
2022/04/03 00:59:14;;;;;;;12.82;6.10;;;;;;;-2.20;96.76;101885.69;4959726;28;20023;-77
2022/04/03 01:01:41;;;;;;;15.07;6.30;;;;;;;-2.22;97.18;101868.63;4963874;28;20045;-77
2022/04/03 01:04:08;;;;;;;12.05;6.47;;;;;;;-2.25;97.37;101881.53;4950336;28;20038;-77
2022/04/03 01:06:34;;;;;;;10.95;6.68;;;;;;;-2.31;97.16;101882.50;4962842;28;20043;-77
2022/04/03 01:09:01;;;;;;;11.57;6.50;;;;;;;-2.38;97.21;101875.81;4967278;28;20042;-76
2022/04/03 01:11:27;;;;;;;10.90;5.88;;;;;;;-2.35;98.11;101874.03;4946885;28;20193;-77
2022/04/03 01:13:53;;;;;;;13.15;6.65;;;;;;;-2.32;99.30;101867.13;4982156;28;20038;-76
2022/04/03 01:16:19;;;;;;;13.20;6.70;;;;;;;-2.44;99.33;101865.69;4950954;28;20038;-77
2022/04/03 01:18:46;;;;;;;12.07;6.50;;;;;;;-2.38;99.18;101868.13;4955287;28;20551;-76
2022/04/03 01:21:12;;;;;;;11.40;6.50;;;;;;;-2.33;99.13;101871.44;4949142;28;20403;-76
2022/04/03 01:23:38;;;;;;;12.98;6.82;;;;;;;-2.19;99.56;101865.94;4973606;28;20046;-77
2022/04/03 01:26:03;;;;;;;19.67;6.70;;;;;;;-2.30;99.38;101863.63;4979546;28;20044;-76
2022/04/03 01:28:29;;;;;;;14.73;6.45;;;;;;;-2.21;99.41;101862.56;4958003;28;20043;-76
2022/04/03 01:30:55;;;;;;;11.13;6.30;;;;;;;-2.28;98.53;101854.19;4940939;28;20035;-75
2022/04/03 01:33:21;;;;;;;10.65;5.53;;;;;;;-2.29;98.33;101867.06;4936158;28;20102;-78
2022/04/03 01:35:46;;;;;;;11.70;6.35;;;;;;;-2.35;98.42;101853.47;4946997;28;20038;-76
2022/04/03 01:38:12;;;;;;;9.80;6.43;;;;;;;-2.38;99.12;101855.25;4945037;28;20585;-78
2022/04/03 01:40:38;;;;;;;13.13;6.25;;;;;;;-2.44;98.72;101851.13;4931042;29;20062;-76
2022/04/03 01:43:06;;;;;;;12.65;6.57;;;;;;;-2.44;99.40;101845.97;4940084;28;20622;-77
2022/04/03 01:45:33;;;;;;;9.27;5.75;;;;;;;-2.42;99.15;101849.34;4954089;28;20035;-77
2022/04/03 01:47:59;;;;;;;10.90;6.50;;;;;;;-2.38;98.96;101848.38;4944365;28;20770;-77
2022/04/03 01:50:26;;;;;;;8.90;6.00;;;;;;;-2.32;98.95;101841.44;4944496;28;20413;-77
2022/04/03 01:52:51;;;;;;;11.25;6.55;;;;;;;-2.33;98.58;101850.03;4960981;28;20506;-76
2022/04/03 01:55:17;;;;;;;10.05;5.82;;;;;;;-2.28;98.44;101851.63;4961695;28;20030;-77
2022/04/03 01:57:42;;;;;;;12.50;6.03;;;;;;;-2.22;99.01;101858.34;4945490;28;20039;-77
2022/04/03 02:00:10;;;;;;;12.02;6.68;;;;;;;-2.22;99.59;101848.88;4940532;28;20035;-77
2022/04/03 02:02:37;;;;;;;8.75;6.30;;;;;;;-2.20;99.63;101852.25;4958777;28;20670;-76
2022/04/03 02:05:04;;;;;;;13.65;6.70;;;;;;;-2.22;99.74;101854.03;4962267;28;20051;-77
2022/04/03 02:07:30;;;;;;;14.90;6.15;;;;;;;-2.22;100.00;101843.75;4941643;28;20038;-77
2022/04/03 02:09:56;;;;;;;12.20;6.97;;;;;;;-2.21;100.00;101842.00;4963430;28;20042;-76
2022/04/03 02:12:22;;;;;;;10.93;6.80;;;;;;;-2.25;100.00;101846.38;4946992;28;20094;-77
2022/04/03 02:14:48;;;;;;;11.20;6.10;;;;;;;-2.33;100.00;101838.03;4962030;28;20444;-79
2022/04/03 02:17:13;;;;;;;11.68;6.55;;;;;;;-2.38;100.00;101840.69;4934376;28;20545;-77
2022/04/03 02:19:39;;;;;;;11.05;6.20;;;;;;;-2.42;100.00;101835.66;4932151;28;20035;-78
2022/04/03 02:22:04;;;;;;;11.38;6.80;;;;;;;-2.42;100.00;101833.94;4932765;28;20034;-78
2022/04/03 02:24:30;;;;;;;10.10;6.55;;;;;;;-2.51;100.00;101821.31;4963851;28;20031;-78
2022/04/03 02:26:56;;;;;;;9.07;6.20;;;;;;;-2.45;100.00;101831.47;4927765;28;20062;-76
2022/04/03 02:29:22;;;;;;;11.88;6.80;;;;;;;-2.42;100.00;101830.53;4933759;28;20035;-76
2022/04/03 02:31:47;;;;;;;11.43;6.15;;;;;;;-2.41;100.00;101829.63;4962658;28;20104;-77
2022/04/03 02:34:13;;;;;;;11.30;6.90;;;;;;;-2.39;100.00;101826.16;4962577;28;20125;-77
2022/04/03 02:36:43;;;;;;;9.85;6.03;;;;;;;-2.40;100.00;101827.03;4941323;28;20031;-77
2022/04/03 02:39:09;;;;;;;12.70;6.93;;;;;;;-2.53;100.00;101812.78;4950307;28;20118;-79
2022/04/03 02:41:35;;;;;;;11.40;6.53;;;;;;;-2.59;100.00;101829.19;4963101;28;20046;-77
2022/04/03 02:44:00;;;;;;;10.70;6.75;;;;;;;-2.71;100.00;101824.34;4968601;28;20031;-76
2022/04/03 02:46:26;;;;;;;9.50;6.50;;;;;;;-2.83;100.00;101815.16;4949921;28;20078;-77
2022/04/03 02:48:52;;;;;;;10.95;6.30;;;;;;;-2.87;100.00;101823.00;4958527;28;20102;-76
2022/04/03 02:51:18;;;;;;;11.80;6.88;;;;;;;-2.94;100.00;101824.84;4942749;28;20062;-76
2022/04/03 02:53:43;;;;;;;11.15;6.90;;;;;;;-2.99;100.00;101822.38;4959991;28;20508;-77
2022/04/03 02:56:09;;;;;;;11.20;6.43;;;;;;;-3.10;100.00;101816.63;4945806;28;20393;-77
2022/04/03 02:58:36;;;;;;;10.57;6.78;;;;;;;-3.03;100.00;101825.03;4963193;28;20065;-77
2022/04/03 03:01:01;;;;;;;10.38;6.32;;;;;;;-3.08;100.00;101808.91;4975546;28;20035;-78
2022/04/03 03:03:27;;;;;;;8.25;5.93;;;;;;;-3.17;100.00;101797.94;4944136;28;20448;-77
2022/04/03 03:05:53;;;;;;;11.32;6.50;;;;;;;-3.04;100.00;101824.19;4963021;28;20070;-77
2022/04/03 03:08:19;;;;;;;10.15;6.35;;;;;;;-3.03;100.00;101822.47;4950907;28;20081;-77
2022/04/03 03:10:45;;;;;;;12.63;6.50;;;;;;;-3.06;100.00;101815.69;4968697;28;20423;-77
2022/04/03 03:13:12;;;;;;;8.82;5.35;;;;;;;-3.12;100.00;101803.00;4959239;28;20041;-77
2022/04/03 03:15:39;;;;;;;9.18;5.80;;;;;;;-3.05;100.00;101813.97;4963305;28;20043;-76
2022/04/03 03:18:04;;;;;;;8.98;6.40;;;;;;;-3.09;100.00;101805.47;4962810;28;20061;-77
2022/04/03 03:20:31;;;;;;;9.95;6.35;;;;;;;-3.17;100.00;101794.53;4944304;28;20101;-77
2022/04/03 03:22:56;;;;;;;7.85;5.60;;;;;;;-3.11;100.00;101812.38;4954844;28;20030;-76
2022/04/03 03:25:22;;;;;;;9.30;5.95;;;;;;;-3.22;100.00;101799.78;4935581;28;20043;-77
2022/04/03 03:27:47;;;;;;;10.50;5.97;;;;;;;-3.17;100.00;101800.50;4970208;28;20100;-76
2022/04/03 03:30:13;;;;;;;9.13;6.03;;;;;;;-3.20;100.00;101794.59;4953899;28;20487;-77
2022/04/03 03:32:39;;;;;;;9.48;6.30;;;;;;;-3.21;100.00;101801.44;4937733;28;20031;-76
2022/04/03 03:35:06;;;;;;;8.80;5.50;;;;;;;-3.13;100.00;101806.41;4952423;28;20117;-77
2022/04/03 03:37:32;;;;;;;9.73;5.85;;;;;;;-3.19;100.00;101796.28;4966366;28;20041;-77
2022/04/03 03:39:58;;;;;;;8.55;5.80;;;;;;;-3.27;100.00;101795.63;4959977;28;20117;-77
2022/04/03 03:42:23;;;;;;;7.18;5.32;;;;;;;-3.25;100.00;101801.56;4953414;28;20789;-77
2022/04/03 03:44:49;;;;;;;8.23;5.43;;;;;;;-3.42;100.00;101779.66;4947929;28;20114;-77
2022/04/03 03:47:15;;;;;;;10.90;5.75;;;;;;;-3.30;100.00;101804.22;4946779;28;20507;-76
2022/04/03 03:49:40;;;;;;;9.85;6.00;;;;;;;-3.32;100.00;101793.13;4956524;28;20039;-77
2022/04/03 03:52:06;;;;;;;7.53;5.55;;;;;;;-3.29;100.00;101803.34;4957232;28;20472;-77
2022/04/03 03:54:32;;;;;;;7.65;4.90;;;;;;;-3.31;100.00;101802.53;4964280;28;20062;-77
2022/04/03 03:56:58;;;;;;;9.48;5.38;;;;;;;-3.22;100.00;101797.22;4968560;28;20643;-77
2022/04/03 03:59:24;;;;;;;7.90;5.60;;;;;;;-3.26;100.00;101774.19;4958258;28;20053;-76
2022/04/03 04:01:50;;;;;;;8.77;4.90;;;;;;;-3.16;100.00;101785.97;4949364;28;20034;-77
2022/04/03 04:04:16;;;;;;;6.80;4.85;;;;;;;-3.13;100.00;101781.63;4951994;28;20034;-78
2022/04/03 04:06:42;;;;;;;9.50;5.60;;;;;;;-3.10;100.00;101795.25;4958280;28;20069;-78
2022/04/03 04:09:07;;;;;;;7.72;5.13;;;;;;;-3.15;100.00;101790.22;4949062;28;20034;-78
2022/04/03 04:11:34;;;;;;;6.45;4.68;;;;;;;-3.19;100.00;101784.28;4958863;28;20070;-78
2022/04/03 04:14:00;;;;;;;7.68;4.93;;;;;;;-3.19;100.00;101788.59;4966376;28;20043;-77
2022/04/03 04:16:25;;;;;;;8.98;5.65;;;;;;;-3.24;100.00;101778.44;4950585;28;20125;-77
2022/04/03 04:18:51;;;;;;;9.23;5.00;;;;;;;-3.29;100.00;101772.56;4951673;28;20405;-77
2022/04/03 04:21:17;;;;;;;6.78;4.90;;;;;;;-3.29;100.00;101776.84;4963169;28;20574;-77
2022/04/03 04:23:43;;;;;;;6.70;4.55;;;;;;;-3.30;100.00;101780.28;4964724;28;20126;-77
2022/04/03 04:26:09;;;;;;;8.57;4.80;;;;;;;-3.34;100.00;101777.75;4949805;28;20042;-77
2022/04/03 04:28:35;;;;;;;7.75;4.38;;;;;;;-3.41;100.00;101775.34;4955115;28;20050;-77
2022/04/03 04:31:01;;;;;;;9.07;4.47;;;;;;;-3.41;100.00;101775.34;4965496;28;20046;-77
2022/04/03 04:33:27;;;;;;;8.40;4.80;;;;;;;-3.44;100.00;101766.00;4968156;28;20117;-77
2022/04/03 04:35:52;;;;;;;7.03;5.03;;;;;;;-3.41;100.00;101772.78;4969021;28;20048;-77
2022/04/03 04:38:19;;;;;;;8.10;4.95;;;;;;;-3.45;100.00;101776.31;4951251;28;20054;-78
2022/04/03 04:40:44;;;;;;;6.78;4.22;;;;;;;-3.44;100.00;101766.00;4963717;28;20043;-77
2022/04/03 04:43:11;;;;;;;6.10;4.20;;;;;;;-3.46;100.00;101760.06;4950071;28;20109;-77
2022/04/03 04:45:36;;;;;;;9.48;5.05;;;;;;;-3.47;100.00;101763.50;4964027;28;20039;-78
2022/04/03 04:48:02;;;;;;;7.18;4.60;;;;;;;-3.41;100.00;101773.66;4935454;28;20050;-78
2022/04/03 04:50:29;;;;;;;8.13;4.28;;;;;;;-3.49;100.00;101764.41;4980448;28;20039;-78
2022/04/03 04:52:56;;;;;;;8.13;4.60;;;;;;;-3.46;100.00;101772.06;4953528;28;20066;-77
2022/04/03 04:55:23;;;;;;;10.95;4.85;;;;;;;-3.49;100.00;101767.81;4935685;28;20038;-77
2022/04/03 04:57:51;;;;;;;6.72;4.70;;;;;;;-3.53;100.00;101764.47;4967746;28;20168;-77
2022/04/03 05:00:17;;;;;;;8.55;4.72;;;;;;;-3.54;100.00;101765.38;4963037;28;20035;-77
2022/04/03 05:02:46;;;;;;;7.88;4.50;;;;;;;-3.50;100.00;101765.28;4934109;29;20129;-77
2022/04/03 05:05:19;;;;;;;10.75;5.07;;;;;;;-3.43;100.00;101764.28;4980087;28;20039;-77
2022/04/03 05:07:47;;;;;;;7.72;4.60;;;;;;;-3.50;100.00;101757.59;4962394;28;20035;-77
2022/04/03 05:10:15;;;;;;;8.43;4.85;;;;;;;-3.50;100.00;101757.59;4949990;28;20408;-77
2022/04/03 05:12:42;;;;;;;9.88;4.72;;;;;;;-3.39;100.00;101756.50;4975242;28;20189;-77
2022/04/03 05:15:11;;;;;;;10.95;4.70;;;;;;;-3.32;100.00;101760.63;4966824;28;20034;-77
2022/04/03 05:17:41;;;;;;;6.95;5.05;;;;;;;-3.29;100.00;101769.16;4939762;28;20133;-78
2022/04/03 05:20:08;;;;;;;8.70;4.70;;;;;;;-3.28;100.00;101774.22;4967614;28;20027;-77
2022/04/03 05:22:33;;;;;;;10.65;5.10;;;;;;;-3.28;100.00;101771.66;4968540;28;20385;-78
2022/04/03 05:24:59;;;;;;;6.68;4.55;;;;;;;-3.24;100.00;101763.03;4951585;28;20073;-77
2022/04/03 05:27:25;;;;;;;7.10;4.63;;;;;;;-3.17;100.00;101774.00;4958199;28;20034;-77
2022/04/03 05:29:51;;;;;;;9.82;5.00;;;;;;;-3.10;100.00;101767.03;4965182;28;20085;-78
2022/04/03 05:32:28;;;;;;;8.80;5.05;;;;;;;-3.07;100.00;101770.38;4966368;28;20035;-77
2022/04/03 05:34:58;;;;;;;10.32;4.95;;;;;;;-3.02;100.00;101768.53;4965072;28;20101;-78
2022/04/03 05:37:24;;;;;;;8.93;5.22;;;;;;;-2.95;100.00;101770.09;4932618;28;20046;-77
2022/04/03 05:39:51;;;;;;;11.80;5.65;;;;;;;-2.91;100.00;101765.72;4934264;28;20051;-77
2022/04/03 05:42:18;;;;;;;9.90;5.25;;;;;;;-2.77;100.00;101771.41;4951819;28;20030;-77
2022/04/03 05:44:43;;;;;;;11.50;5.65;;;;;;;-2.63;100.00;101736.84;4964536;28;20085;-78
2022/04/03 05:47:09;;;;;;;8.07;4.85;;;;;;;-2.30;100.00;101770.28;4949204;28;20038;-77
2022/04/03 05:49:35;;;;;;;10.10;5.32;;;;;;;-2.25;100.00;101765.88;4967644;28;20121;-77
2022/04/03 05:52:02;;;;;;;6.68;4.90;;;;;;;-2.10;100.00;101775.75;4933463;28;20066;-78
2022/04/03 05:54:27;;;;;;;10.82;5.45;;;;;;;-2.21;100.00;101768.31;4961598;28;20063;-78
2022/04/03 05:56:53;;;;;;;14.18;5.10;;;;;;;-2.10;100.00;101787.78;4961851;28;20515;-77
2022/04/03 05:59:20;;;;;;;9.50;4.80;;;;;;;-2.02;100.00;101771.25;4955056;28;20046;-77
2022/04/03 06:01:47;;;;;;;13.85;5.32;;;;;;;-1.89;100.00;101778.66;4947737;28;20081;-77
2022/04/03 06:04:12;;;;;;;9.95;4.78;;;;;;;-1.53;100.00;101778.50;4944749;28;20038;-77
2022/04/03 06:06:38;;;;;;;9.75;4.78;;;;;;;-1.29;100.00;101769.25;4974854;28;20058;-77
2022/04/03 06:09:04;;;;;;;6.35;4.68;;;;;;;-1.26;100.00;101774.28;4960680;28;20736;-77
2022/04/03 06:11:30;;;;;;;7.63;4.05;;;;;;;-1.32;100.00;101771.91;4966639;28;20038;-77
2022/04/03 06:13:55;;;;;;;6.72;3.78;;;;;;;-1.23;100.00;101777.63;4980976;28;20114;-76
2022/04/03 06:16:21;;;;;;;10.95;4.72;;;;;;;-0.93;100.00;101780.16;4947262;28;20027;-77
2022/04/03 06:18:46;;;;;;;6.88;4.13;;;;;;;-0.48;100.00;101777.03;4946831;28;20038;-77
2022/04/03 06:21:12;;;;;;;5.38;3.70;;;;;;;-0.07;100.00;101776.56;4956404;28;20073;-77
2022/04/03 06:23:37;;;;;;;7.00;4.15;;;;;;;0.14;100.00;101777.53;4947021;29;20126;-77
2022/04/03 06:26:03;;;;;;;7.55;3.88;;;;;;;0.35;100.00;101788.84;4942431;28;20097;-76
2022/04/03 06:28:29;;;;;;;7.10;3.70;;;;;;;0.51;100.00;101791.69;4948359;28;20046;-76
2022/04/03 06:30:56;;;;;;;6.95;3.53;;;;;;;0.53;100.00;101788.19;4949100;28;20520;-77
2022/04/03 06:33:22;;;;;;;6.88;3.33;;;;;;;0.46;100.00;101791.88;4949847;28;20563;-75
2022/04/03 06:35:48;;;;;;;5.47;3.15;;;;;;;0.41;100.00;101793.75;4959363;28;20122;-76
2022/04/03 06:38:15;;;;;;;5.57;3.50;;;;;;;0.41;100.00;101793.75;4948959;28;20121;-76
2022/04/03 06:40:47;;;;;;;6.20;3.55;;;;;;;0.38;100.00;101794.72;4971630;28;20034;-75
2022/04/03 06:43:15;;;;;;;8.18;3.75;;;;;;;0.39;100.00;101788.66;4946748;28;20046;-77
2022/04/03 06:45:40;;;;;;;8.38;3.92;;;;;;;0.42;100.00;101782.56;4953840;28;20043;-76
2022/04/03 06:48:06;;;;;;;5.63;3.60;;;;;;;0.49;100.00;101778.00;4950957;28;20031;-76
2022/04/03 06:50:32;;;;;;;9.35;3.45;;;;;;;0.47;100.00;101779.78;4959869;28;20048;-76
2022/04/03 06:52:58;;;;;;;7.03;3.50;;;;;;;0.47;100.00;101775.50;4946747;28;20531;-76
2022/04/03 06:55:23;;;;;;;6.53;3.75;;;;;;;0.52;100.00;101783.06;4944347;28;20122;-77
2022/04/03 06:57:49;;;;;;;7.15;3.70;;;;;;;0.69;100.00;101791.00;4946612;28;20034;-77
2022/04/03 07:00:15;;;;;;;7.07;3.42;;;;;;;0.72;100.00;101788.34;4953678;28;20498;-76
2022/04/03 07:02:41;;;;;;;5.93;3.63;;;;;;;0.77;100.00;101781.25;4936991;28;20739;-77
2022/04/03 07:05:09;;;;;;;6.38;3.65;;;;;;;0.78;100.00;101787.25;4968075;28;20096;-76
2022/04/03 07:07:35;;;;;;;6.45;4.18;;;;;;;0.96;100.00;101790.88;4973634;28;20521;-76
2022/04/03 07:10:01;;;;;;;6.45;3.75;;;;;;;0.94;100.00;101785.78;4968053;28;20057;-76
2022/04/03 07:12:27;;;;;;;7.28;3.80;;;;;;;0.99;100.00;101790.75;4938628;28;20069;-77
2022/04/03 07:14:56;;;;;;;6.28;3.38;;;;;;;0.97;100.00;101789.97;4952537;28;20093;-75
2022/04/03 07:17:22;;;;;;;7.63;3.67;;;;;;;0.83;100.00;101781.91;4952710;28;20105;-76
2022/04/03 07:19:47;;;;;;;5.47;3.78;;;;;;;0.83;100.00;101787.06;4964663;28;20043;-76
2022/04/03 07:22:13;;;;;;;5.80;3.55;;;;;;;0.93;100.00;101798.75;4961790;28;20042;-77
2022/04/03 07:24:39;;;;;;;6.28;3.50;;;;;;;1.00;100.00;101791.59;4976096;28;20039;-76
2022/04/03 07:27:05;;;;;;;6.82;3.17;;;;;;;1.08;100.00;101793.00;4967782;28;20055;-76
2022/04/03 07:29:31;;;;;;;5.30;3.40;;;;;;;1.28;100.00;101793.94;4965932;28;20125;-76
2022/04/03 07:31:57;;;;;;;9.10;3.22;;;;;;;1.38;100.00;101790.09;4972047;28;20039;-76
2022/04/03 07:34:24;;;;;;;5.25;3.55;;;;;;;1.43;100.00;101793.38;4965112;28;20092;-77
2022/04/03 07:36:49;;;;;;;4.97;3.00;;;;;;;1.57;100.00;101791.97;4925598;28;20047;-75
2022/04/03 07:39:15;;;;;;;5.05;3.00;;;;;;;1.75;100.00;101793.75;4936818;28;20045;-77
2022/04/03 07:41:41;;;;;;;8.82;3.42;;;;;;;1.72;100.00;101786.97;4965473;28;20130;-77
2022/04/03 07:44:08;;;;;;;7.72;3.08;;;;;;;1.74;100.00;101797.28;4963409;28;20058;-75
2022/04/03 07:46:35;;;;;;;6.93;2.90;;;;;;;1.94;100.00;101797.28;4943867;28;20480;-76
2022/04/03 07:49:00;;;;;;;3.78;3.00;;;;;;;1.91;100.00;101797.41;4968328;28;20500;-77
2022/04/03 07:51:27;;;;;;;4.93;3.08;;;;;;;2.00;100.00;101797.91;4951663;28;20050;-76
2022/04/03 07:53:54;;;;;;;5.55;2.92;;;;;;;2.01;100.00;101805.59;4948586;28;20392;-76
2022/04/03 07:56:20;;;;;;;5.20;2.90;;;;;;;2.12;100.00;101784.44;4935440;28;20026;-77
2022/04/03 07:58:46;;;;;;;4.75;2.60;;;;;;;2.18;100.00;101791.94;4965740;28;20042;-77
2022/04/03 08:01:11;;;;;;;4.65;2.70;;;;;;;2.06;100.00;101792.50;4950541;28;20571;-75
2022/04/03 08:03:37;;;;;;;5.95;2.65;;;;;;;1.96;100.00;101792.03;4983858;28;20047;-75
2022/04/03 08:06:04;;;;;;;4.28;2.70;;;;;;;1.88;100.00;101794.94;4952224;28;20057;-77
2022/04/03 08:08:30;;;;;;;3.90;2.60;;;;;;;1.98;100.00;101790.22;4962089;28;20043;-75
2022/04/03 08:10:56;;;;;;;5.82;2.60;;;;;;;1.95;100.00;101796.34;4971023;28;20249;-77
2022/04/03 08:13:22;;;;;;;7.47;3.03;;;;;;;2.08;100.00;101807.03;4932738;28;20850;-76
2022/04/03 08:15:48;;;;;;;3.80;2.47;;;;;;;2.18;100.00;101809.22;4943437;28;20035;-77
2022/04/03 08:18:14;;;;;;;4.70;2.17;;;;;;;2.14;100.00;101808.53;4965345;28;20047;-76
2022/04/03 08:20:40;;;;;;;4.88;2.78;;;;;;;2.16;100.00;101805.88;4966119;28;20127;-76
2022/04/03 08:23:05;;;;;;;4.68;2.70;;;;;;;2.13;100.00;101804.28;4951044;28;20117;-77
2022/04/03 08:25:34;;;;;;;6.35;3.30;;;;;;;2.17;100.00;101795.44;4958833;28;20045;-76
2022/04/03 08:28:02;;;;;;;6.63;2.70;;;;;;;2.31;100.00;101803.44;4965530;28;20451;-77
2022/04/03 08:30:34;;;;;;;6.10;3.00;;;;;;;2.21;100.00;101802.19;4946138;28;20075;-75
2022/04/03 08:33:00;;;;;;;4.88;2.88;;;;;;;2.50;100.00;101808.66;4966399;28;20401;-75
2022/04/03 08:35:28;;;;;;;6.25;2.67;;;;;;;2.68;100.00;101800.97;4964958;28;20042;-77
2022/04/03 08:37:55;;;;;;;8.82;2.90;;;;;;;2.82;100.00;101801.19;4951965;28;20046;-76
2022/04/03 08:40:23;;;;;;;4.10;2.47;;;;;;;3.01;100.00;101800.34;4949258;28;20034;-76
2022/04/03 08:42:53;;;;;;;8.88;3.50;;;;;;;3.37;100.00;101800.34;4960712;28;20051;-75
2022/04/03 08:45:19;;;;;;;9.85;3.70;;;;;;;3.47;100.00;101795.56;4958116;28;20035;-76
2022/04/03 08:47:54;;;;;;;8.43;2.75;;;;;;;3.51;100.00;101804.88;4985916;28;20035;-77
2022/04/03 08:50:24;;;;;;;8.65;2.80;;;;;;;3.20;100.00;101816.72;4932089;28;20392;-77
2022/04/03 08:52:52;;;;;;;5.47;2.90;;;;;;;2.85;100.00;101808.00;4953471;28;20035;-77
2022/04/03 08:55:19;;;;;;;9.18;3.35;;;;;;;2.61;100.00;101803.00;4945504;28;20046;-77
2022/04/03 08:57:45;;;;;;;5.15;2.60;;;;;;;2.56;100.00;101806.69;4951235;28;20047;-76
2022/04/03 09:00:13;;;;;;;6.03;2.97;;;;;;;2.51;100.00;101802.56;4965087;28;20373;-76
2022/04/03 09:02:40;;;;;;;6.32;3.35;;;;;;;2.54;100.00;101799.00;4948051;28;20042;-76
2022/04/03 09:05:10;;;;;;;7.03;3.38;;;;;;;2.83;100.00;101802.03;4962166;28;20104;-77
2022/04/03 09:07:35;;;;;;;7.82;3.58;;;;;;;2.86;100.00;101792.38;4973229;28;20035;-77
2022/04/03 09:10:11;;;;;;;4.63;2.95;;;;;;;3.28;100.00;101803.41;4966089;28;20090;-77
2022/04/03 09:12:49;;;;;;;7.50;3.10;;;;;;;3.66;100.00;101804.09;4965020;28;20038;-78
2022/04/03 09:15:17;;;;;;;10.77;3.13;;;;;;;3.70;100.00;101797.84;4950623;28;20042;-76
2022/04/03 09:17:44;;;;;;;7.97;3.42;;;;;;;4.01;100.00;101795.47;4949336;28;20130;-77
2022/04/03 09:20:15;;;;;;;10.18;3.75;;;;;;;3.88;100.00;101796.09;4961136;28;20031;-77
2022/04/03 09:22:43;;;;;;;9.98;3.75;;;;;;;3.93;100.00;101797.63;4948508;28;20096;-77
2022/04/03 09:25:11;;;;;;;6.65;3.97;;;;;;;4.12;100.00;101793.16;4955039;28;20034;-77
2022/04/03 09:27:48;;;;;;;11.20;4.22;;;;;;;3.98;100.00;101793.03;4955135;28;20035;-77
2022/04/03 09:30:14;;;;;;;9.75;4.53;;;;;;;4.11;100.00;101786.31;4947632;28;20751;-79
2022/04/03 09:32:48;;;;;;;10.02;6.00;;;;;;;4.54;100.00;101796.19;4935015;29;20053;-76
2022/04/03 09:35:16;;;;;;;10.68;4.85;;;;;;;4.56;100.00;101790.00;4944240;28;20030;-77
2022/04/03 09:38:04;;;;;;;7.43;4.70;;;;;;;4.89;100.00;101786.50;4949082;28;20043;-76
2022/04/03 09:40:32;;;;;;;7.18;3.45;;;;;;;4.95;98.44;101799.16;4966175;28;20050;-77
2022/04/03 09:43:16;;;;;;;7.15;2.85;;;;;;;5.01;96.91;101788.44;4966242;28;20039;-76
2022/04/03 09:45:49;;;;;;;4.38;2.80;;;;;;;4.98;96.81;101785.16;4950900;28;20648;-77
2022/04/03 09:48:32;;;;;;;7.75;2.22;;;;;;;5.34;95.15;101784.03;4941186;28;20505;-77
2022/04/03 09:51:05;;;;;;;5.32;2.30;;;;;;;5.58;97.63;101781.78;4956643;28;20039;-77
2022/04/03 09:53:44;;;;;;;12.40;2.60;;;;;;;5.69;92.61;101788.97;4953782;28;20053;-77
2022/04/03 09:56:12;;;;;;;8.23;2.60;;;;;;;5.63;92.49;101782.34;4972258;28;20034;-77
2022/04/03 09:58:44;;;;;;;7.40;2.35;;;;;;;5.55;93.20;101779.34;4965674;28;20118;-77
2022/04/03 10:01:26;;;;;;;10.32;2.55;;;;;;;5.69;92.77;101778.53;4966350;28;20035;-76
2022/04/03 10:03:53;;;;;;;10.03;3.10;;;;;;;5.63;93.34;101771.94;4944021;28;20051;-77
2022/04/03 10:06:19;;;;;;;8.60;2.67;;;;;;;5.88;91.05;101766.13;4951200;28;20351;-77
2022/04/03 10:08:48;;;;;;;10.50;2.63;;;;;;;5.74;91.48;101759.13;4969565;28;20043;-76
2022/04/03 10:11:15;;;;;;;9.52;2.35;;;;;;;5.51;90.64;101757.88;4966609;28;20443;-76
2022/04/03 10:13:43;;;;;;;6.93;2.08;;;;;;;5.90;86.87;101750.44;4963036;28;20043;-76
2022/04/03 10:16:12;;;;;;;8.13;2.40;;;;;;;6.37;84.66;101747.56;4949310;28;20035;-77
2022/04/03 10:18:46;;;;;;;7.85;1.98;;;;;;;6.69;83.22;101749.13;4953057;28;20074;-77
2022/04/03 10:21:17;;;;;;;5.07;1.88;;;;;;;7.11;83.69;101760.34;4953743;28;20037;-78
2022/04/03 10:23:45;;;;;;;7.53;1.95;;;;;;;7.10;79.62;101750.84;4947412;28;20050;-77
2022/04/03 10:26:15;;;;;;;7.18;1.65;;;;;;;6.94;78.99;101746.59;4954958;28;20081;-76
2022/04/03 10:28:47;;;;;;;8.65;2.60;;;;;;;7.36;80.52;101751.75;4952938;28;20119;-75
2022/04/03 10:31:16;;;;;;;5.55;1.77;;;;;;;7.73;78.05;101742.31;4966718;28;20045;-79
2022/04/03 10:33:44;;;;;;;6.35;1.50;;;;;;;7.46;70.89;101742.38;4968731;28;20473;-76
2022/04/03 10:36:12;;;;;;;4.60;1.50;;;;;;;6.66;78.81;101742.31;4960352;28;20031;-76
2022/04/03 10:39:04;;;;;;;4.65;1.30;;;;;;;6.20;87.28;101745.19;4971443;28;20045;-75
2022/04/03 10:41:34;;;;;;;5.47;1.38;;;;;;;5.86;90.54;101736.75;4962726;28;20571;-75
2022/04/03 10:44:19;;;;;;;7.32;1.58;;;;;;;5.47;92.77;101736.38;4968027;28;20042;-76
2022/04/03 10:47:03;;;;;;;3.08;1.27;;;;;;;5.08;95.40;101742.09;4963025;28;20398;-77
2022/04/03 10:49:29;;;;;;;5.80;1.65;;;;;;;4.76;95.42;101734.34;4966345;28;20066;-76
2022/04/03 10:52:09;;;;;;;1.77;1.13;;;;;;;4.48;97.04;101735.00;4961112;28;20070;-76
2022/04/03 10:54:43;;;;;;;4.43;1.55;;;;;;;4.34;98.63;101740.13;4954040;28;20613;-76
2022/04/03 10:57:32;;;;;;;4.47;1.50;;;;;;;4.26;99.76;101750.91;4936569;28;20034;-75
2022/04/03 11:00:10;;;;;;;5.35;1.48;;;;;;;4.12;100.00;101748.19;4967143;28;20059;-75
2022/04/03 11:02:36;;;;;;;5.38;1.35;;;;;;;4.09;100.00;101739.63;4931688;28;20063;-76
2022/04/03 11:05:26;;;;;;;6.30;1.60;;;;;;;4.01;100.00;101753.94;4936173;28;20043;-79
2022/04/03 11:08:02;;;;;;;3.97;1.77;;;;;;;4.11;100.00;101736.97;4959122;28;20045;-78
2022/04/03 11:10:52;;;;;;;4.95;1.90;;;;;;;4.13;100.00;101745.50;4962755;28;20046;-77
2022/04/03 11:13:22;;;;;;;6.20;1.77;;;;;;;4.32;100.00;101741.97;4968748;28;20039;-77
2022/04/03 11:15:55;;;;;;;3.50;1.40;;;;;;;4.47;100.00;101735.94;4967356;28;20043;-77
2022/04/03 11:18:42;;;;;;;3.50;1.70;;;;;;;4.93;100.00;101736.00;4935273;28;20027;-77
2022/04/03 11:21:20;;;;;;;8.27;1.63;;;;;;;5.18;99.02;101727.66;4965077;28;20042;-77
2022/04/03 11:23:52;;;;;;;5.53;0.90;;;;;;;5.18;95.12;101732.88;4945947;28;20080;-78